This is the latest recevied weather packets stored in our database for station/object N0KWA. If no packets are shown the sender has not sent any weather packets the latest 10 day(s).
| Time | Temp. | Humidity | Pressure | Rain* | Wind** | Luminosity | Snow |
|---|---|---|---|---|---|---|---|
| 1788287738 | 32.22° C | 78% | 1018.9 hPa | 0 mm | - | 52 W/m² | - |
| 1788287433 | 32.22° C | 77% | 1019.1 hPa | 0 mm | - | 52 W/m² | - |
| 1788287129 | 32.78° C | 77% | 1019.1 hPa | 0 mm | - | 43 W/m² | - |
| 1788286824 | 32.78° C | 78% | 1019.1 hPa | 0 mm | - | 44 W/m² | - |
| 1788286524 | 32.22° C | 78% | 1019.2 hPa | 0 mm | - | 612 W/m² | - |
| 1788286223 | 31.67° C | 79% | 1019.4 hPa | 0 mm | - | 53 W/m² | - |
| 1788285922 | 31.67° C | 81% | 1019.2 hPa | 0 mm | - | 148 W/m² | - |
| 1788285616 | 32.22° C | 78% | 1019.4 hPa | 0 mm | - | 39 W/m² | - |
| 1788285310 | 32.22° C | 76% | 1019.1 hPa | 0 mm | - | 56 W/m² | - |
| 1788285005 | 32.78° C | 73% | 1019.2 hPa | 0 mm | - | 423 W/m² | - |
| 1788284700 | 32.78° C | 76% | 1019 hPa | 0 mm | - | 48 W/m² | - |
| 1788284396 | 32.78° C | 74% | 1019.2 hPa | 0 mm | - | 67 W/m² | - |
| 1788284091 | 32.22° C | 73% | 1019.3 hPa | 0 mm | - | 49 W/m² | - |
| 1788283787 | 32.22° C | 74% | 1019.2 hPa | 0 mm | - | 154 W/m² | - |
| 1788283483 | 32.22° C | 76% | 1019.4 hPa | 0 mm | - | 246 W/m² | - |
| 1788283181 | 31.67° C | 79% | 1019.5 hPa | 0 mm | - | 43 W/m² | - |
| 1788282879 | 31.67° C | 78% | 1019.6 hPa | 0 mm | - | 39 W/m² | - |
| 1788282578 | 31.67° C | 78% | 1019.7 hPa | 0 mm | - | 266 W/m² | - |
| 1788282273 | 31.67° C | 79% | 1019.6 hPa | 0 mm | - | 122 W/m² | - |
| 1788281972 | 31.11° C | 80% | 1019.5 hPa | 0 mm | - | 32 W/m² | - |
| 1788281668 | 31.11° C | 78% | 1019.7 hPa | 0 mm | - | 46 W/m² | - |
| 1788281364 | 30.56° C | 83% | 1019.8 hPa | 0 mm | - | 45 W/m² | - |
| 1788281059 | 30.56° C | 84% | 1019.8 hPa | 0 mm | - | 39 W/m² | - |
| 1788280759 | 30.56° C | 84% | 1019.8 hPa | 0 mm | - | 25 W/m² | - |
| 1788280454 | 30.56° C | 84% | 1020 hPa | 0 mm | - | 26 W/m² | - |
* Rain latest hour (hover to see other rain measurements)
** Current wind speed in m/s (hover to see current wind gust speed)